Terminal Aerodrome Forecast
Issued by NWS

Home | Current Version | Previous Version | Text Only | Print | Product List | Glossary On
Versions: 1 2 3 4 5 6 7 8 9 10 11 12 13 14 15 16 17 18 19 20 21 22 23 24 25 26 27 28 29 30 31
000
FTUS41 KOKX 260558
TAFGON
TAF
KGON 260558Z 2606/2706 21006KT P6SM SCT030 SCT100
      TEMPO 2610/2614 5SM BR BKN010
     FM261500 23009KT P6SM SCT035 SCT250
     FM262300 29008KT P6SM SCT040
     FM270100 33004KT P6SM SKC=

USA.gov is the U.S. government's official web portal to all federal, state and local government web resources and services.